Golden Airport
CYGE : now visible

Airfield :











YOU CAN JOIN US ON...

 
LOGIN :

Register | Disclaimer

   EN    FR    IT 

 









Legend :    VFR   Marginal VFR   IFR   Intensive IFR   Very Intensive IFR
Visi :
Ceiling :
>= 8 km
>= 3000ft
5 to 8 km
1000 to 3000 ft
1500m to 5 km
500 to 1000 ft
800 to 1500m
200 to 500 ft
< 800m
< 200 ft
Symbols :   Thunderstorms  Fog  Heavy snow  Heavy precipitations  Wind > 20 kt






- Airport Elevation : 2575 ft


CYGE - Golden

CURRENT METAR :
  • 071400Z VRB02KT 20SM FEW002 FEW030 SCT100 BKN210 11/11 A2990 RMK ST1SC1AC2CI2 ST TR VIS N 5 SLP127 DENSITY ALT 2800FT

EXPIRED METARs :
  • 071300Z 00000KT 10SM FEW004 FEW015 BKN100 BKN140 11/11 A2988 RMK ST1SC1AC4AC2 ST TR VIS S 20 SLP118 DENSITY ALT 2800FT
  • 071200Z 00000KT 20SM FEW009 SCT095 BKN140 OVC180 12/11 A2986 RMK ST1AC3AC4AC1 ST TR /R11 AFT 00Z/ SLP110 DENSITY ALT 2900FT

TAF N/A
CZVR FIR / North America



MET'MAP, your aeronautical weather chart ! - Copyright ORBIFLY December 2007 - Disclaimer

ORBIFLY MET'MAP TEAM :

Programming & Development : Alexandra Zaïnal
Concept & original design : Baudouin d'Aumeries
Assistance for programming : Marc-Olivier Méhu
Technical & hardware support : Manuel Goepfert

Contact : metmap@orbifly.com




SOURCES & CREDITS :

   NOAA       Earth
Advisory